RYR55LG GMMW-EBCI
Flight info
| Callsign | RYR55LG |
|---|---|
| Flight time | N/A |
| Altitude | 35000 |
| Route | IXIRI UM372 ESAMI M372 AMR/N0461F360 M143 YES DCT DISVU DCT LATEK DCT CHALA DCT BOKNO UN858 VANAD UN874 ARSAF DCT SULEX DCT CMB DCT ARVOL |
| Aircraft | B738/M-SDE2E3FGHIRWXY/LB1 |
Departure
| Time | 2026-04-26 17:40 |
|---|---|
| Airport | Nador Al Aaroui International Airport (GMMW) |
Arrival
| Time | N/A |
|---|---|
| Airport | Brussels South Charleroi Airport (EBCI) |
| Time | Latitude | Longitude | Altitude | Speed | Heading |
|---|---|---|---|---|---|
| 2026-04-26 17:23 | 34.99246 | -3.02767 | 576 ft | 0 kts | 125° |
| 2026-04-26 17:34 | 34.99235 | -3.02750 | 603 ft | 5 kts | 144° |
| 2026-04-26 17:34 | 34.99200 | -3.02770 | 603 ft | 7 kts | 233° |
| 2026-04-26 17:35 | 34.99182 | -3.02838 | 603 ft | 9 kts | 259° |
| 2026-04-26 17:35 | 34.99165 | -3.02908 | 603 ft | 9 kts | 236° |
| 2026-04-26 17:35 | 34.99097 | -3.02934 | 603 ft | 14 kts | 181° |
| 2026-04-26 17:35 | 34.98985 | -3.02911 | 602 ft | 17 kts | 166° |
| 2026-04-26 17:36 | 34.98895 | -3.02973 | 602 ft | 16 kts | 253° |
| 2026-04-26 17:36 | 34.98871 | -3.03107 | 603 ft | 16 kts | 257° |
| 2026-04-26 17:36 | 34.98848 | -3.03236 | 612 ft | 15 kts | 258° |
| 2026-04-26 17:36 | 34.98828 | -3.03360 | 605 ft | 15 kts | 258° |
| 2026-04-26 17:37 | 34.98807 | -3.03480 | 607 ft | 15 kts | 257° |
| 2026-04-26 17:37 | 34.98784 | -3.03613 | 611 ft | 17 kts | 259° |
| 2026-04-26 17:37 | 34.98756 | -3.03780 | 616 ft | 23 kts | 258° |
| 2026-04-26 17:38 | 34.98692 | -3.04150 | 603 ft | 22 kts | 259° |
| 2026-04-26 17:38 | 34.98707 | -3.04314 | 602 ft | 20 kts | 284° |
| 2026-04-26 17:38 | 34.98664 | -3.04315 | 603 ft | 12 kts | 82° |
| 2026-04-26 17:38 | 34.98669 | -3.04284 | 602 ft | 6 kts | 77° |
| 2026-04-26 17:39 | 34.98698 | -3.04117 | 603 ft | 32 kts | 78° |
| 2026-04-26 17:39 | 34.98776 | -3.03667 | 608 ft | 86 kts | 78° |
| 2026-04-26 17:39 | 34.98942 | -3.02705 | 602 ft | 144 kts | 78° |
| 2026-04-26 17:39 | 34.99177 | -3.01366 | 895 ft | 168 kts | 76° |
| 2026-04-26 17:40 | 34.99509 | -3.00004 | 1701 ft | 170 kts | 60° |
| 2026-04-26 17:40 | 34.99947 | -2.99217 | 2236 ft | 168 kts | 53° |
| 2026-04-26 17:40 | 35.01355 | -2.98215 | 2705 ft | 200 kts | 17° |
| 2026-04-26 17:40 | 35.02746 | -2.97841 | 3035 ft | 214 kts | 16° |
| 2026-04-26 17:41 | 35.04256 | -2.97387 | 3263 ft | 232 kts | 17° |
| 2026-04-26 17:41 | 35.05881 | -2.96891 | 3558 ft | 250 kts | 17° |
| 2026-04-26 17:41 | 35.07599 | -2.96354 | 4124 ft | 258 kts | 16° |
| 2026-04-26 17:41 | 35.09349 | -2.95798 | 4848 ft | 263 kts | 15° |
| 2026-04-26 17:42 | 35.11127 | -2.95227 | 5543 ft | 268 kts | 16° |
| 2026-04-26 17:42 | 35.12962 | -2.94630 | 6099 ft | 278 kts | 16° |
| 2026-04-26 17:42 | 35.14827 | -2.94018 | 6683 ft | 285 kts | 15° |
| 2026-04-26 17:42 | 35.16746 | -2.93384 | 7398 ft | 286 kts | 15° |
| 2026-04-26 17:43 | 35.18682 | -2.92743 | 8087 ft | 289 kts | 14° |
| 2026-04-26 17:43 | 35.20632 | -2.92094 | 8799 ft | 292 kts | 14° |
| 2026-04-26 17:43 | 35.22617 | -2.91432 | 9422 ft | 298 kts | 14° |
| 2026-04-26 17:43 | 35.24616 | -2.90764 | 10126 ft | 299 kts | 14° |
| 2026-04-26 17:44 | 35.26666 | -2.90078 | 10481 ft | 315 kts | 14° |
| 2026-04-26 17:44 | 35.28854 | -2.89346 | 10628 ft | 336 kts | 14° |
| 2026-04-26 17:44 | 35.31136 | -2.88582 | 10802 ft | 355 kts | 14° |
| 2026-04-26 17:44 | 35.33580 | -2.87762 | 10969 ft | 372 kts | 14° |
| 2026-04-26 17:45 | 35.36119 | -2.86910 | 11269 ft | 384 kts | 14° |
| 2026-04-26 17:45 | 35.38702 | -2.86041 | 11893 ft | 385 kts | 14° |
| 2026-04-26 17:45 | 35.41300 | -2.85163 | 12438 ft | 390 kts | 14° |
| 2026-04-26 17:45 | 35.43922 | -2.84282 | 13059 ft | 391 kts | 14° |
| 2026-04-26 17:46 | 35.46558 | -2.83396 | 13673 ft | 395 kts | 14° |
| 2026-04-26 17:46 | 35.49187 | -2.82510 | 14250 ft | 397 kts | 14° |
| 2026-04-26 17:46 | 35.51846 | -2.81565 | 14780 ft | 401 kts | 16° |
| 2026-04-26 17:46 | 35.54513 | -2.80491 | 15289 ft | 404 kts | 18° |
| 2026-04-26 17:47 | 35.57175 | -2.79373 | 15927 ft | 405 kts | 19° |
| 2026-04-26 17:47 | 35.58976 | -2.78615 | 16344 ft | 405 kts | 18° |
| 2026-04-26 17:47 | 35.62525 | -2.77131 | 17068 ft | 409 kts | 17° |
| 2026-04-26 17:47 | 35.65228 | -2.76015 | 17634 ft | 410 kts | 17° |
| 2026-04-26 17:48 | 35.67941 | -2.74900 | 18179 ft | 412 kts | 18° |
| 2026-04-26 17:48 | 35.70667 | -2.73782 | 18663 ft | 414 kts | 17° |
| 2026-04-26 17:48 | 35.73407 | -2.72660 | 19092 ft | 417 kts | 17° |
| 2026-04-26 17:48 | 35.76136 | -2.71542 | 19552 ft | 418 kts | 17° |
| 2026-04-26 17:49 | 35.78897 | -2.70410 | 20099 ft | 418 kts | 17° |
| 2026-04-26 17:49 | 35.81666 | -2.69274 | 20554 ft | 421 kts | 17° |
| 2026-04-26 17:49 | 35.84446 | -2.68124 | 20981 ft | 424 kts | 17° |
| 2026-04-26 17:49 | 35.87251 | -2.66953 | 21391 ft | 426 kts | 16° |
| 2026-04-26 17:50 | 35.90061 | -2.65770 | 21914 ft | 427 kts | 18° |
| 2026-04-26 17:50 | 35.92872 | -2.64579 | 22272 ft | 430 kts | 16° |
| 2026-04-26 17:50 | 35.95707 | -2.63375 | 22827 ft | 429 kts | 18° |
| 2026-04-26 17:50 | 35.98543 | -2.62172 | 23152 ft | 434 kts | 17° |
| 2026-04-26 17:51 | 36.01362 | -2.60978 | 23569 ft | 436 kts | 17° |
| 2026-04-26 17:51 | 36.04238 | -2.59758 | 23853 ft | 439 kts | 16° |
| 2026-04-26 17:51 | 36.07131 | -2.58534 | 24214 ft | 440 kts | 18° |
| 2026-04-26 17:51 | 36.10036 | -2.57305 | 24504 ft | 443 kts | 16° |
| 2026-04-26 17:52 | 36.12967 | -2.56057 | 24786 ft | 446 kts | 18° |
| 2026-04-26 17:52 | 36.15909 | -2.54805 | 24996 ft | 450 kts | 18° |
| 2026-04-26 17:52 | 36.18885 | -2.53543 | 25315 ft | 451 kts | 16° |
| 2026-04-26 17:52 | 36.21861 | -2.52277 | 25600 ft | 454 kts | 16° |
| 2026-04-26 17:53 | 36.24848 | -2.51005 | 26036 ft | 452 kts | 17° |
| 2026-04-26 17:53 | 36.27815 | -2.49737 | 26396 ft | 452 kts | 17° |
| 2026-04-26 17:53 | 36.30760 | -2.48483 | 26639 ft | 455 kts | 17° |
| 2026-04-26 17:54 | 36.36785 | -2.45912 | 27153 ft | 459 kts | 17° |
| 2026-04-26 17:54 | 36.39803 | -2.44621 | 27497 ft | 459 kts | 17° |
| 2026-04-26 17:54 | 36.42818 | -2.43332 | 27851 ft | 459 kts | 17° |
| 2026-04-26 17:54 | 36.45847 | -2.42035 | 28116 ft | 461 kts | 17° |
| 2026-04-26 17:55 | 36.47842 | -2.41179 | 28343 ft | 460 kts | 17° |
| 2026-04-26 17:55 | 36.51854 | -2.39455 | 29167 ft | 452 kts | 18° |
| 2026-04-26 17:55 | 36.54832 | -2.38175 | 29436 ft | 454 kts | 17° |
| 2026-04-26 17:55 | 36.57827 | -2.36893 | 29639 ft | 457 kts | 17° |
| 2026-04-26 17:56 | 36.60788 | -2.35620 | 30111 ft | 453 kts | 17° |
| 2026-04-26 17:56 | 36.66728 | -2.33062 | 30673 ft | 454 kts | 17° |
| 2026-04-26 17:57 | 36.72698 | -2.30484 | 31273 ft | 452 kts | 17° |
| 2026-04-26 17:57 | 36.75658 | -2.29207 | 31619 ft | 451 kts | 18° |
| 2026-04-26 17:57 | 36.78617 | -2.27928 | 31965 ft | 448 kts | 18° |
| 2026-04-26 17:57 | 36.81582 | -2.26755 | 32287 ft | 446 kts | 11° |
| 2026-04-26 17:58 | 36.90760 | -2.26266 | 32998 ft | 444 kts | 355° |
| 2026-04-26 17:59 | 36.96894 | -2.26756 | 33596 ft | 442 kts | 355° |
| 2026-04-26 17:59 | 36.99961 | -2.26986 | 33888 ft | 441 kts | 355° |
| 2026-04-26 17:59 | 37.03012 | -2.27202 | 34251 ft | 438 kts | 356° |
| 2026-04-26 17:59 | 37.06062 | -2.27410 | 34357 ft | 441 kts | 356° |
| 2026-04-26 18:00 | 37.09126 | -2.27614 | 34554 ft | 441 kts | 356° |
| 2026-04-26 18:00 | 37.12150 | -2.27812 | 34779 ft | 441 kts | 356° |
| 2026-04-26 18:00 | 37.15217 | -2.28014 | 34897 ft | 443 kts | 355° |
| 2026-04-26 18:00 | 37.18285 | -2.28218 | 35173 ft | 441 kts | 355° |
| 2026-04-26 18:01 | 37.21352 | -2.28422 | 35329 ft | 442 kts | 356° |
| 2026-04-26 18:01 | 37.24440 | -2.28617 | 35390 ft | 446 kts | 356° |
| 2026-04-26 18:01 | 37.27546 | -2.28801 | 35539 ft | 447 kts | 356° |
| 2026-04-26 18:01 | 37.30645 | -2.28980 | 35801 ft | 445 kts | 356° |
| 2026-04-26 18:02 | 37.33729 | -2.29158 | 36072 ft | 443 kts | 356° |
| 2026-04-26 18:02 | 37.34765 | -2.29218 | 36140 ft | 443 kts | 356° |
| 2026-04-26 18:02 | 37.39887 | -2.29518 | 36419 ft | 444 kts | 356° |
| 2026-04-26 18:02 | 37.42977 | -2.29700 | 36561 ft | 445 kts | 356° |
| 2026-04-26 18:03 | 37.46073 | -2.29884 | 36753 ft | 444 kts | 356° |
| 2026-04-26 18:03 | 37.49149 | -2.30066 | 37082 ft | 440 kts | 356° |
| 2026-04-26 18:03 | 37.55306 | -2.30433 | 37112 ft | 444 kts | 356° |
| 2026-04-26 18:04 | 37.61466 | -2.30800 | 37115 ft | 442 kts | 356° |
| 2026-04-26 18:05 | 37.70640 | -2.31348 | 37110 ft | 438 kts | 356° |
| 2026-04-26 18:05 | 37.76722 | -2.31712 | 37107 ft | 436 kts | 355° |
| 2026-04-26 18:06 | 37.82788 | -2.32076 | 37104 ft | 436 kts | 356° |
| 2026-04-26 18:06 | 37.88801 | -2.32437 | 37121 ft | 436 kts | 356° |
| 2026-04-26 18:07 | 37.94875 | -2.32803 | 37112 ft | 437 kts | 356° |
| 2026-04-26 18:07 | 38.00968 | -2.33170 | 37107 ft | 439 kts | 355° |
| 2026-04-26 18:08 | 38.07087 | -2.33540 | 37113 ft | 441 kts | 356° |
| 2026-04-26 18:08 | 38.13228 | -2.33911 | 37119 ft | 443 kts | 356° |
| 2026-04-26 18:09 | 38.19395 | -2.34284 | 37131 ft | 444 kts | 356° |
| 2026-04-26 18:09 | 38.25575 | -2.34660 | 37124 ft | 444 kts | 356° |
| 2026-04-26 18:10 | 38.31712 | -2.35034 | 37096 ft | 444 kts | 356° |
| 2026-04-26 18:10 | 38.37869 | -2.34498 | 37130 ft | 445 kts | 11° |
| 2026-04-26 18:11 | 38.43785 | -2.32073 | 37127 ft | 446 kts | 17° |
| 2026-04-26 18:11 | 38.49629 | -2.29394 | 37117 ft | 445 kts | 19° |
| 2026-04-26 18:12 | 38.55471 | -2.26735 | 37113 ft | 446 kts | 18° |
| 2026-04-26 18:12 | 38.61323 | -2.24112 | 37111 ft | 446 kts | 18° |
| 2026-04-26 18:13 | 38.67188 | -2.21498 | 37110 ft | 446 kts | 17° |
| 2026-04-26 18:13 | 38.73020 | -2.18898 | 37109 ft | 447 kts | 18° |
| 2026-04-26 18:14 | 38.78894 | -2.16273 | 37115 ft | 447 kts | 18° |
| 2026-04-26 18:14 | 38.83777 | -2.14086 | 37099 ft | 447 kts | 18° |
| 2026-04-26 18:15 | 38.89657 | -2.11448 | 37117 ft | 447 kts | 18° |
| 2026-04-26 18:15 | 38.95531 | -2.08809 | 37108 ft | 447 kts | 18° |
| 2026-04-26 18:16 | 39.01413 | -2.06161 | 37108 ft | 447 kts | 18° |
| 2026-04-26 18:16 | 39.10216 | -2.02190 | 37102 ft | 447 kts | 18° |
| 2026-04-26 18:17 | 39.16082 | -1.99536 | 37123 ft | 447 kts | 18° |
| 2026-04-26 18:17 | 39.21943 | -1.96881 | 37112 ft | 447 kts | 18° |
| 2026-04-26 18:18 | 39.27808 | -1.94220 | 37109 ft | 446 kts | 18° |
| 2026-04-26 18:18 | 39.33631 | -1.91574 | 37123 ft | 446 kts | 18° |
| 2026-04-26 18:19 | 39.39481 | -1.88909 | 37128 ft | 446 kts | 18° |
| 2026-04-26 18:19 | 39.45335 | -1.86239 | 37114 ft | 446 kts | 17° |
| 2026-04-26 18:20 | 39.51185 | -1.83563 | 37123 ft | 446 kts | 18° |
| 2026-04-26 18:20 | 39.56091 | -1.81319 | 37121 ft | 446 kts | 18° |
| 2026-04-26 18:21 | 39.62903 | -1.78197 | 37121 ft | 446 kts | 18° |
| 2026-04-26 18:21 | 39.68761 | -1.75503 | 37128 ft | 447 kts | 18° |
| 2026-04-26 18:22 | 39.74618 | -1.72805 | 37128 ft | 447 kts | 18° |
| 2026-04-26 18:22 | 39.80480 | -1.70103 | 37134 ft | 447 kts | 19° |
| 2026-04-26 18:23 | 39.86352 | -1.67389 | 37132 ft | 448 kts | 17° |
| 2026-04-26 18:23 | 39.92227 | -1.64672 | 37135 ft | 448 kts | 19° |
| 2026-04-26 18:24 | 39.98117 | -1.61945 | 37136 ft | 449 kts | 17° |
| 2026-04-26 18:24 | 40.04006 | -1.59207 | 37143 ft | 449 kts | 18° |
| 2026-04-26 18:25 | 40.09894 | -1.56466 | 37127 ft | 450 kts | 18° |
| 2026-04-26 18:25 | 40.15793 | -1.53716 | 37132 ft | 449 kts | 18° |
| 2026-04-26 18:26 | 40.21650 | -1.50981 | 37133 ft | 449 kts | 18° |
| 2026-04-26 18:26 | 40.27541 | -1.48226 | 37143 ft | 449 kts | 18° |
| 2026-04-26 18:27 | 40.33435 | -1.45462 | 37142 ft | 449 kts | 18° |
| 2026-04-26 18:27 | 40.39320 | -1.42697 | 37149 ft | 450 kts | 18° |
| 2026-04-26 18:28 | 40.45216 | -1.39922 | 37147 ft | 450 kts | 18° |
| 2026-04-26 18:28 | 40.51108 | -1.37145 | 37151 ft | 450 kts | 19° |
| 2026-04-26 18:29 | 40.56997 | -1.34363 | 37134 ft | 450 kts | 19° |
| 2026-04-26 18:29 | 40.62889 | -1.31574 | 37137 ft | 449 kts | 19° |
| 2026-04-26 18:30 | 40.68776 | -1.28783 | 37123 ft | 449 kts | 19° |
| 2026-04-26 18:30 | 40.74638 | -1.26059 | 37099 ft | 449 kts | 14° |
| 2026-04-26 18:31 | 40.80722 | -1.24244 | 37149 ft | 447 kts | 10° |
| 2026-04-26 18:31 | 40.86852 | -1.22674 | 37126 ft | 448 kts | 10° |
| 2026-04-26 18:32 | 40.92971 | -1.21064 | 37116 ft | 448 kts | 11° |
| 2026-04-26 18:32 | 40.99078 | -1.19399 | 37105 ft | 448 kts | 11° |
| 2026-04-26 18:33 | 41.05179 | -1.17711 | 37089 ft | 447 kts | 11° |
| 2026-04-26 18:33 | 41.11267 | -1.16020 | 37088 ft | 447 kts | 11° |
| 2026-04-26 18:34 | 41.17350 | -1.14328 | 37095 ft | 446 kts | 11° |
| 2026-04-26 18:34 | 41.23394 | -1.12645 | 37078 ft | 446 kts | 11° |
| 2026-04-26 18:35 | 41.29459 | -1.10953 | 37078 ft | 445 kts | 11° |
| 2026-04-26 18:35 | 41.35513 | -1.09262 | 37084 ft | 444 kts | 11° |
| 2026-04-26 18:36 | 41.41557 | -1.07570 | 37070 ft | 444 kts | 11° |
| 2026-04-26 18:36 | 41.47611 | -1.05872 | 37061 ft | 444 kts | 11° |
| 2026-04-26 18:37 | 41.53657 | -1.04173 | 37070 ft | 444 kts | 11° |
| 2026-04-26 18:37 | 41.59692 | -1.02474 | 37081 ft | 443 kts | 11° |
| 2026-04-26 18:38 | 41.65732 | -1.00770 | 37074 ft | 443 kts | 11° |
| 2026-04-26 18:38 | 41.71766 | -0.99064 | 37073 ft | 443 kts | 11° |
| 2026-04-26 18:39 | 41.77801 | -0.97355 | 37081 ft | 443 kts | 11° |
| 2026-04-26 18:39 | 41.83803 | -0.95652 | 37067 ft | 443 kts | 11° |
| 2026-04-26 18:40 | 41.89843 | -0.93935 | 37067 ft | 443 kts | 11° |
| 2026-04-26 18:40 | 41.95884 | -0.92215 | 37067 ft | 444 kts | 11° |
| 2026-04-26 18:41 | 42.01929 | -0.90489 | 37060 ft | 444 kts | 11° |
| 2026-04-26 18:41 | 42.07975 | -0.88761 | 37075 ft | 444 kts | 11° |
| 2026-04-26 18:42 | 42.14031 | -0.87026 | 37075 ft | 445 kts | 11° |
| 2026-04-26 18:42 | 42.20087 | -0.85287 | 37089 ft | 445 kts | 11° |
| 2026-04-26 18:43 | 42.26140 | -0.83546 | 37090 ft | 445 kts | 11° |
| 2026-04-26 18:43 | 42.32207 | -0.81798 | 37083 ft | 446 kts | 11° |
| 2026-04-26 18:44 | 42.38233 | -0.80058 | 37105 ft | 446 kts | 11° |
| 2026-04-26 18:44 | 42.44309 | -0.78300 | 37102 ft | 446 kts | 11° |
| 2026-04-26 18:45 | 42.50383 | -0.76539 | 37106 ft | 446 kts | 11° |
| 2026-04-26 18:45 | 42.56454 | -0.74775 | 37140 ft | 446 kts | 11° |
| 2026-04-26 18:46 | 42.62520 | -0.73010 | 37140 ft | 446 kts | 11° |
| 2026-04-26 18:46 | 42.68585 | -0.71241 | 37144 ft | 445 kts | 11° |
| 2026-04-26 18:47 | 42.74645 | -0.69470 | 37159 ft | 444 kts | 11° |
| 2026-04-26 18:47 | 42.80679 | -0.67702 | 37163 ft | 444 kts | 11° |
| 2026-04-26 18:48 | 42.86683 | -0.65941 | 37157 ft | 444 kts | 11° |
| 2026-04-26 18:48 | 42.92718 | -0.64132 | 37172 ft | 443 kts | 12° |
| 2026-04-26 18:49 | 42.98731 | -0.62289 | 37160 ft | 443 kts | 12° |
| 2026-04-26 18:49 | 43.04753 | -0.60438 | 37160 ft | 443 kts | 12° |
| 2026-04-26 18:50 | 43.10761 | -0.58594 | 37173 ft | 442 kts | 12° |
| 2026-04-26 18:50 | 43.16743 | -0.56756 | 37155 ft | 443 kts | 12° |
| 2026-04-26 18:51 | 43.22758 | -0.54905 | 37170 ft | 443 kts | 12° |
| 2026-04-26 18:51 | 43.28779 | -0.53049 | 37153 ft | 444 kts | 12° |
| 2026-04-26 18:52 | 43.34817 | -0.51183 | 37161 ft | 445 kts | 12° |
| 2026-04-26 18:52 | 43.40859 | -0.49312 | 37162 ft | 445 kts | 12° |
| 2026-04-26 18:53 | 43.46908 | -0.47435 | 37148 ft | 446 kts | 12° |
| 2026-04-26 18:53 | 43.52972 | -0.45550 | 37171 ft | 447 kts | 12° |
| 2026-04-26 18:54 | 43.59044 | -0.43658 | 37148 ft | 448 kts | 12° |
| 2026-04-26 18:54 | 43.65130 | -0.41758 | 37164 ft | 448 kts | 12° |
| 2026-04-26 18:55 | 43.71177 | -0.39867 | 37155 ft | 449 kts | 12° |
| 2026-04-26 18:55 | 43.77271 | -0.37957 | 37154 ft | 449 kts | 12° |
| 2026-04-26 18:56 | 43.83365 | -0.36042 | 37163 ft | 449 kts | 11° |
| 2026-04-26 18:56 | 43.89459 | -0.34123 | 37153 ft | 449 kts | 11° |
| 2026-04-26 18:57 | 43.93538 | -0.32837 | 37157 ft | 449 kts | 11° |
| 2026-04-26 18:57 | 44.01650 | -0.30274 | 37154 ft | 449 kts | 11° |
| 2026-04-26 18:58 | 44.07750 | -0.28341 | 37153 ft | 449 kts | 11° |
| 2026-04-26 18:58 | 44.13806 | -0.26419 | 37155 ft | 449 kts | 11° |
| 2026-04-26 18:59 | 44.19897 | -0.24481 | 37153 ft | 449 kts | 11° |
| 2026-04-26 18:59 | 44.25991 | -0.22538 | 37153 ft | 449 kts | 11° |
| 2026-04-26 19:00 | 44.31056 | -0.20920 | 37150 ft | 449 kts | 11° |
| 2026-04-26 19:00 | 44.37139 | -0.18973 | 37154 ft | 449 kts | 11° |
| 2026-04-26 19:01 | 44.43231 | -0.17019 | 37159 ft | 449 kts | 11° |
| 2026-04-26 19:01 | 44.49328 | -0.15060 | 37142 ft | 450 kts | 11° |
| 2026-04-26 19:02 | 44.55432 | -0.13093 | 37143 ft | 450 kts | 11° |
| 2026-04-26 19:02 | 44.60540 | -0.11445 | 37149 ft | 450 kts | 11° |
| 2026-04-26 19:03 | 44.67638 | -0.09149 | 37140 ft | 450 kts | 11° |
| 2026-04-26 19:03 | 44.73748 | -0.07168 | 37145 ft | 450 kts | 11° |
| 2026-04-26 19:04 | 44.79849 | -0.05185 | 37147 ft | 450 kts | 11° |
| 2026-04-26 19:04 | 44.85925 | -0.03207 | 37138 ft | 450 kts | 11° |
| 2026-04-26 19:05 | 44.95083 | -0.00217 | 37151 ft | 450 kts | 11° |
| 2026-04-26 19:06 | 45.01194 | 0.01784 | 37145 ft | 450 kts | 11° |
| 2026-04-26 19:06 | 45.07295 | 0.03786 | 37148 ft | 450 kts | 11° |
| 2026-04-26 19:07 | 45.13391 | 0.05791 | 37145 ft | 449 kts | 11° |
| 2026-04-26 19:07 | 45.19481 | 0.07798 | 37158 ft | 449 kts | 11° |
| 2026-04-26 19:08 | 45.25563 | 0.09807 | 37143 ft | 449 kts | 11° |
| 2026-04-26 19:08 | 45.31640 | 0.11819 | 37154 ft | 448 kts | 11° |
| 2026-04-26 19:09 | 45.37719 | 0.13827 | 37151 ft | 448 kts | 11° |
| 2026-04-26 19:09 | 45.43800 | 0.15786 | 37150 ft | 448 kts | 10° |
| 2026-04-26 19:10 | 45.49880 | 0.17736 | 37152 ft | 448 kts | 10° |
| 2026-04-26 19:10 | 45.55929 | 0.19686 | 37158 ft | 448 kts | 10° |
| 2026-04-26 19:11 | 45.62007 | 0.21654 | 37159 ft | 448 kts | 10° |
| 2026-04-26 19:11 | 45.68104 | 0.23634 | 37148 ft | 449 kts | 10° |
| 2026-04-26 19:12 | 45.74196 | 0.25617 | 37165 ft | 449 kts | 10° |
| 2026-04-26 19:12 | 45.80297 | 0.27608 | 37154 ft | 449 kts | 10° |
| 2026-04-26 19:13 | 45.86394 | 0.29602 | 37173 ft | 449 kts | 10° |
| 2026-04-26 19:13 | 45.92499 | 0.31602 | 37144 ft | 450 kts | 10° |
| 2026-04-26 19:14 | 45.98597 | 0.33605 | 37178 ft | 450 kts | 10° |
| 2026-04-26 19:14 | 46.04712 | 0.35618 | 37162 ft | 450 kts | 10° |
| 2026-04-26 19:15 | 46.10776 | 0.37619 | 37157 ft | 450 kts | 10° |
| 2026-04-26 19:15 | 46.16894 | 0.39642 | 37177 ft | 451 kts | 10° |
| 2026-04-26 19:16 | 46.23008 | 0.41668 | 37152 ft | 451 kts | 10° |
| 2026-04-26 19:16 | 46.29120 | 0.43699 | 37160 ft | 450 kts | 10° |
| 2026-04-26 19:17 | 46.35228 | 0.45733 | 37165 ft | 450 kts | 10° |
| 2026-04-26 19:17 | 46.41330 | 0.47769 | 37177 ft | 450 kts | 10° |
| 2026-04-26 19:18 | 46.47428 | 0.49809 | 37169 ft | 449 kts | 10° |
| 2026-04-26 19:18 | 46.53520 | 0.51851 | 37174 ft | 449 kts | 10° |
| 2026-04-26 19:19 | 46.59602 | 0.53895 | 37178 ft | 449 kts | 10° |
| 2026-04-26 19:19 | 46.65686 | 0.55944 | 37177 ft | 449 kts | 10° |
| 2026-04-26 19:20 | 46.71765 | 0.57996 | 37180 ft | 449 kts | 10° |
| 2026-04-26 19:20 | 46.77815 | 0.60043 | 37169 ft | 449 kts | 10° |
| 2026-04-26 19:21 | 46.83893 | 0.62105 | 37177 ft | 449 kts | 10° |
| 2026-04-26 19:21 | 46.89985 | 0.64176 | 37171 ft | 449 kts | 10° |
| 2026-04-26 19:22 | 46.96075 | 0.66252 | 37166 ft | 449 kts | 10° |
| 2026-04-26 19:22 | 47.02168 | 0.68332 | 37185 ft | 450 kts | 10° |
| 2026-04-26 19:23 | 47.08319 | 0.69802 | 37186 ft | 446 kts | 1° |
| 2026-04-26 19:23 | 47.14501 | 0.70342 | 37168 ft | 446 kts | 0° |
| 2026-04-26 19:24 | 47.20707 | 0.70883 | 37170 ft | 447 kts | 0° |
| 2026-04-26 19:24 | 47.30012 | 0.71833 | 37198 ft | 447 kts | 1° |
| 2026-04-26 19:25 | 47.35168 | 0.72378 | 37177 ft | 447 kts | 1° |
| 2026-04-26 19:25 | 47.42383 | 0.73139 | 37182 ft | 447 kts | 1° |
| 2026-04-26 19:26 | 47.48591 | 0.73829 | 37190 ft | 448 kts | 4° |
| 2026-04-26 19:26 | 47.54687 | 0.76198 | 37309 ft | 450 kts | 15° |
| 2026-04-26 19:27 | 47.57621 | 0.77698 | 37168 ft | 454 kts | 16° |
| 2026-04-26 19:27 | 47.60607 | 0.79230 | 37221 ft | 452 kts | 16° |
| 2026-04-26 19:27 | 47.66583 | 0.82237 | 37208 ft | 453 kts | 15° |
| 2026-04-26 19:28 | 47.72577 | 0.85198 | 37211 ft | 453 kts | 15° |
| 2026-04-26 19:28 | 47.78568 | 0.88155 | 37204 ft | 453 kts | 15° |
| 2026-04-26 19:29 | 47.84558 | 0.91125 | 37199 ft | 454 kts | 15° |
| 2026-04-26 19:29 | 47.90541 | 0.94139 | 37198 ft | 454 kts | 15° |
| 2026-04-26 19:30 | 47.96510 | 0.97168 | 37210 ft | 453 kts | 15° |
| 2026-04-26 19:30 | 48.01471 | 0.99679 | 37209 ft | 453 kts | 15° |
| 2026-04-26 19:31 | 48.08435 | 1.03158 | 37207 ft | 453 kts | 15° |
| 2026-04-26 19:31 | 48.14459 | 1.06170 | 37207 ft | 453 kts | 15° |
| 2026-04-26 19:32 | 48.20444 | 1.09176 | 37205 ft | 453 kts | 15° |
| 2026-04-26 19:32 | 48.26391 | 1.12173 | 37217 ft | 454 kts | 15° |
| 2026-04-26 19:33 | 48.32386 | 1.15202 | 37210 ft | 455 kts | 15° |
| 2026-04-26 19:33 | 48.38384 | 1.18241 | 37232 ft | 455 kts | 15° |
| 2026-04-26 19:34 | 48.44388 | 1.21290 | 37233 ft | 455 kts | 15° |
| 2026-04-26 19:34 | 48.50389 | 1.24345 | 37214 ft | 456 kts | 15° |
| 2026-04-26 19:35 | 48.56408 | 1.27417 | 37245 ft | 456 kts | 15° |
| 2026-04-26 19:35 | 48.62389 | 1.30477 | 37229 ft | 457 kts | 15° |
| 2026-04-26 19:36 | 48.66420 | 1.32544 | 37253 ft | 457 kts | 15° |
| 2026-04-26 19:36 | 48.74454 | 1.36674 | 37237 ft | 457 kts | 15° |
| 2026-04-26 19:37 | 48.80475 | 1.39778 | 37242 ft | 456 kts | 15° |
| 2026-04-26 19:37 | 48.86483 | 1.42884 | 37227 ft | 456 kts | 15° |
| 2026-04-26 19:38 | 48.92483 | 1.45992 | 37238 ft | 455 kts | 15° |
| 2026-04-26 19:38 | 48.98103 | 1.50359 | 37284 ft | 460 kts | 34° |
| 2026-04-26 19:39 | 49.02728 | 1.57189 | 37357 ft | 462 kts | 46° |
| 2026-04-26 19:39 | 49.06963 | 1.64623 | 37268 ft | 465 kts | 46° |
| 2026-04-26 19:40 | 49.11231 | 1.72068 | 37245 ft | 466 kts | 46° |
| 2026-04-26 19:40 | 49.15535 | 1.79492 | 37245 ft | 466 kts | 46° |
| 2026-04-26 19:41 | 49.19839 | 1.86907 | 37233 ft | 466 kts | 46° |
| 2026-04-26 19:41 | 49.22688 | 1.91830 | 37249 ft | 466 kts | 46° |
| 2026-04-26 19:42 | 49.28408 | 2.01746 | 37238 ft | 466 kts | 46° |
| 2026-04-26 19:42 | 49.32695 | 2.09201 | 37240 ft | 466 kts | 46° |
| 2026-04-26 19:43 | 49.37239 | 2.16263 | 37209 ft | 462 kts | 36° |
| 2026-04-26 19:43 | 49.39759 | 2.19290 | 37330 ft | 459 kts | 34° |
| 2026-04-26 19:44 | 49.46697 | 2.27416 | 37235 ft | 461 kts | 34° |
| 2026-04-26 19:44 | 49.52158 | 2.33939 | 37245 ft | 461 kts | 35° |
| 2026-04-26 19:45 | 49.57197 | 2.40041 | 37250 ft | 460 kts | 35° |
| 2026-04-26 19:45 | 49.62216 | 2.46146 | 37262 ft | 459 kts | 35° |
| 2026-04-26 19:46 | 49.67196 | 2.52216 | 37243 ft | 460 kts | 35° |
| 2026-04-26 19:46 | 49.72228 | 2.58362 | 37119 ft | 463 kts | 35° |
| 2026-04-26 19:47 | 49.74778 | 2.61481 | 36397 ft | 469 kts | 35° |
| 2026-04-26 19:47 | 49.76464 | 2.63548 | 36138 ft | 464 kts | 35° |
| 2026-04-26 19:47 | 49.79850 | 2.67708 | 35130 ft | 468 kts | 35° |
| 2026-04-26 19:47 | 49.82388 | 2.70828 | 34639 ft | 464 kts | 35° |
| 2026-04-26 19:48 | 49.84930 | 2.73957 | 33714 ft | 470 kts | 35° |
| 2026-04-26 19:48 | 49.87480 | 2.77100 | 33161 ft | 466 kts | 35° |
| 2026-04-26 19:48 | 49.89987 | 2.80195 | 32302 ft | 469 kts | 35° |
| 2026-04-26 19:48 | 49.92528 | 2.83336 | 31674 ft | 466 kts | 35° |
| 2026-04-26 19:49 | 49.95070 | 2.86482 | 30856 ft | 469 kts | 36° |
| 2026-04-26 19:49 | 49.96792 | 2.88614 | 30347 ft | 469 kts | 36° |